createdAt,value
2023-02-05T00:01:53.264Z,-9.48
2023-02-05T00:04:22.713Z,-9.24
2023-02-05T00:06:56.886Z,-9.18
2023-02-05T00:09:28.976Z,-9.26
2023-02-05T00:11:59.521Z,-9.29
2023-02-05T00:14:29.873Z,-9.43
2023-02-05T00:17:01.732Z,-9.51
2023-02-05T00:19:31.874Z,-9.55
2023-02-05T00:22:03.137Z,-9.67
2023-02-05T00:24:32.565Z,-9.81
2023-02-05T00:27:02.005Z,-9.90
2023-02-05T00:29:32.430Z,-9.84
2023-02-05T00:32:05.615Z,-9.81
2023-02-05T00:34:36.047Z,-9.83
2023-02-05T00:37:05.824Z,-9.80
2023-02-05T00:39:37.766Z,-9.75
2023-02-05T00:42:10.240Z,-9.68
2023-02-05T00:44:41.623Z,-9.60
2023-02-05T00:47:12.977Z,-9.55
2023-02-05T00:49:43.439Z,-9.51
2023-02-05T00:52:14.960Z,-9.51
2023-02-05T00:54:46.980Z,-9.55
2023-02-05T00:57:17.344Z,-9.55
2023-02-05T00:59:52.949Z,-9.53
2023-02-05T01:02:28.545Z,-9.54
2023-02-05T01:04:58.325Z,-9.55
2023-02-05T01:07:27.842Z,-9.62
2023-02-05T01:09:58.270Z,-9.86
2023-02-05T01:12:29.296Z,-9.93
2023-02-05T01:15:05.659Z,-9.84
2023-02-05T01:17:36.746Z,-9.75
2023-02-05T01:20:08.092Z,-9.83
2023-02-05T01:22:38.715Z,-10.08
2023-02-05T01:25:09.159Z,-10.30
2023-02-05T01:27:39.301Z,-10.40
2023-02-05T01:30:16.618Z,-10.44
2023-02-05T01:32:47.978Z,-10.41
2023-02-05T01:35:16.830Z,-10.29
2023-02-05T01:37:46.326Z,-10.12
2023-02-05T01:40:20.018Z,-9.96
2023-02-05T01:42:50.912Z,-9.72
2023-02-05T01:45:25.407Z,-9.46
2023-02-05T01:47:56.590Z,-9.28
2023-02-05T01:50:28.848Z,-9.17
2023-02-05T01:53:00.516Z,-9.06
2023-02-05T01:55:33.240Z,-8.96
2023-02-05T01:58:04.401Z,-8.83
2023-02-05T02:00:35.127Z,-8.69
2023-02-05T02:03:05.928Z,-8.54
2023-02-05T02:05:36.057Z,-8.38
2023-02-05T02:08:24.995Z,-8.24
2023-02-05T02:10:57.492Z,-8.02
2023-02-05T02:13:28.987Z,-7.81
2023-02-05T02:15:59.756Z,-7.59
2023-02-05T02:18:30.890Z,-7.41
2023-02-05T02:21:20.053Z,-7.26
2023-02-05T02:23:59.132Z,-7.09
2023-02-05T02:26:42.947Z,-6.94
2023-02-05T02:29:18.577Z,-6.76
2023-02-05T02:31:58.747Z,-6.60
2023-02-05T02:34:33.836Z,-6.47
2023-02-05T02:37:17.426Z,-6.37
2023-02-05T02:39:54.000Z,-6.24
2023-02-05T02:42:38.927Z,-6.13
2023-02-05T02:45:09.742Z,-6.05
2023-02-05T02:47:42.518Z,-6.04
2023-02-05T02:50:28.061Z,-6.24
2023-02-05T02:52:58.615Z,-6.41
2023-02-05T02:55:31.359Z,-6.53
2023-02-05T02:58:04.787Z,-6.61
2023-02-05T03:00:35.207Z,-6.69
2023-02-05T03:03:07.288Z,-6.75
2023-02-05T03:05:41.379Z,-6.81
2023-02-05T03:08:18.505Z,-6.85
2023-02-05T03:10:56.307Z,-6.83
2023-02-05T03:13:25.987Z,-6.79
2023-02-05T03:15:59.814Z,-6.74
2023-02-05T03:18:30.232Z,-6.66
2023-02-05T03:21:04.264Z,-6.58
2023-02-05T03:23:35.841Z,-6.50
2023-02-05T03:26:07.330Z,-6.42
2023-02-05T03:28:43.922Z,-6.32
2023-02-05T03:31:18.327Z,-6.20
2023-02-05T03:34:06.976Z,-6.11
2023-02-05T03:37:04.055Z,-6.04
2023-02-05T03:39:43.039Z,-5.98
2023-02-05T03:42:26.341Z,-5.92
2023-02-05T03:45:02.645Z,-5.87
2023-02-05T03:47:47.042Z,-5.82
2023-02-05T03:50:26.828Z,-5.74
2023-02-05T03:53:00.294Z,-5.77
2023-02-05T03:55:32.578Z,-5.81
2023-02-05T03:58:06.907Z,-5.82
2023-02-05T04:00:37.298Z,-5.79
2023-02-05T04:03:06.991Z,-5.72
2023-02-05T04:05:37.178Z,-5.63
2023-02-05T04:08:08.660Z,-5.62
2023-02-05T04:10:44.226Z,-5.66
2023-02-05T04:13:13.952Z,-5.61
2023-02-05T04:15:45.084Z,-5.57
2023-02-05T04:18:17.483Z,-5.60
2023-02-05T04:20:47.865Z,-5.59
2023-02-05T04:23:19.413Z,-5.53
2023-02-05T04:25:52.890Z,-5.45
2023-02-05T04:28:23.532Z,-5.41
2023-02-05T04:30:55.227Z,-5.45
2023-02-05T04:33:27.695Z,-5.54
2023-02-05T04:36:01.159Z,-5.54
2023-02-05T04:38:30.627Z,-5.52
2023-02-05T04:41:00.512Z,-5.50
2023-02-05T04:43:31.516Z,-5.47
2023-02-05T04:46:05.582Z,-5.39
2023-02-05T04:48:36.531Z,-5.32
2023-02-05T04:51:11.992Z,-5.25
2023-02-05T04:53:42.520Z,-5.14
2023-02-05T04:56:13.905Z,-5.12
2023-02-05T04:58:45.274Z,-5.14
2023-02-05T05:01:21.572Z,-5.18
2023-02-05T05:03:52.942Z,-5.21
2023-02-05T05:06:24.356Z,-5.27
2023-02-05T05:08:56.729Z,-5.26
2023-02-05T05:11:28.029Z,-5.24
2023-02-05T05:13:59.634Z,-5.22
2023-02-05T05:16:31.780Z,-5.22
2023-02-05T05:19:03.679Z,-5.24
2023-02-05T05:21:33.896Z,-5.25
2023-02-05T05:24:05.733Z,-5.26
2023-02-05T05:26:49.786Z,-5.28
2023-02-05T05:29:18.624Z,-5.32
2023-02-05T05:31:50.109Z,-5.38
2023-02-05T05:34:20.295Z,-5.42
2023-02-05T05:36:49.719Z,-5.46
2023-02-05T05:39:37.833Z,-5.48
2023-02-05T05:42:28.649Z,-5.51
2023-02-05T05:44:57.945Z,-5.54
2023-02-05T05:47:30.901Z,-5.55
2023-02-05T05:49:59.728Z,-5.57
2023-02-05T05:52:32.398Z,-5.55
2023-02-05T05:55:02.954Z,-5.52
2023-02-05T05:57:33.572Z,-5.45
2023-02-05T06:00:03.185Z,-5.38
2023-02-05T06:02:42.439Z,-5.27
2023-02-05T06:05:13.458Z,-5.14
2023-02-05T06:07:44.064Z,-5.04
2023-02-05T06:10:15.902Z,-4.93
2023-02-05T06:12:46.979Z,-4.80
2023-02-05T06:15:17.268Z,-4.77
2023-02-05T06:17:46.610Z,-4.78
2023-02-05T06:20:17.261Z,-4.71
2023-02-05T06:22:48.622Z,-4.64
2023-02-05T06:25:19.845Z,-4.66
2023-02-05T06:27:49.281Z,-4.72
2023-02-05T06:30:18.251Z,-4.77
2023-02-05T06:32:49.956Z,-4.79
2023-02-05T06:35:20.631Z,-4.82
2023-02-05T06:37:58.747Z,-4.85
2023-02-05T06:40:31.064Z,-4.88
2023-02-05T06:43:03.461Z,-4.89
2023-02-05T06:45:34.778Z,-4.92
2023-02-05T06:48:06.620Z,-4.92
2023-02-05T06:50:37.148Z,-4.91
2023-02-05T06:53:06.934Z,-4.90
2023-02-05T06:55:38.022Z,-4.88
2023-02-05T06:58:10.309Z,-4.86
2023-02-05T07:00:42.915Z,-4.83
2023-02-05T07:03:13.524Z,-4.82
2023-02-05T07:05:45.015Z,-4.77
2023-02-05T07:08:14.946Z,-4.66
2023-02-05T07:10:47.117Z,-4.58
2023-02-05T07:13:16.395Z,-4.50
2023-02-05T07:15:46.852Z,-4.49
2023-02-05T07:18:19.171Z,-4.47
2023-02-05T07:20:49.600Z,-4.42
2023-02-05T07:23:20.346Z,-4.34
2023-02-05T07:25:49.229Z,-4.26
2023-02-05T07:28:21.376Z,-4.20
2023-02-05T07:30:52.956Z,-4.10
2023-02-05T07:33:23.337Z,-4.03
2023-02-05T07:35:52.560Z,-4.02
2023-02-05T07:38:23.448Z,-3.99
2023-02-05T07:40:54.264Z,-3.97
2023-02-05T07:43:24.348Z,-3.90
2023-02-05T07:46:01.206Z,-3.67
2023-02-05T07:48:30.856Z,-3.35
2023-02-05T07:51:00.109Z,-3.06
2023-02-05T07:53:30.423Z,-2.78
2023-02-05T07:56:03.889Z,-2.57
2023-02-05T07:58:35.178Z,-2.57
2023-02-05T08:01:04.838Z,-2.64
2023-02-05T08:03:35.753Z,-2.66
2023-02-05T08:06:07.661Z,-2.64
2023-02-05T08:08:38.224Z,-2.59
2023-02-05T08:11:08.344Z,-2.54
2023-02-05T08:13:41.012Z,-2.31
2023-02-05T08:16:11.544Z,-2.00
2023-02-05T08:18:42.190Z,-1.64
2023-02-05T08:21:12.796Z,-1.20
2023-02-05T08:23:41.559Z,-0.69
2023-02-05T08:26:11.902Z,0.29
2023-02-05T08:28:43.299Z,0.70
2023-02-05T08:31:19.368Z,1.50
2023-02-05T08:33:53.328Z,4.54
2023-02-05T08:36:26.791Z,7.41
2023-02-05T08:38:58.994Z,9.01
2023-02-05T08:41:29.405Z,8.94
2023-02-05T08:43:59.482Z,8.04
2023-02-05T08:46:40.370Z,7.24
2023-02-05T08:49:17.464Z,6.73
2023-02-05T08:51:48.344Z,6.32
2023-02-05T08:54:18.421Z,6.88
2023-02-05T08:56:50.223Z,7.33
2023-02-05T08:59:20.116Z,6.90
2023-02-05T09:01:50.422Z,6.63
2023-02-05T09:04:22.661Z,6.21
2023-02-05T09:06:52.315Z,7.16
2023-02-05T09:09:23.654Z,8.50
2023-02-05T09:11:54.971Z,10.64
2023-02-05T09:14:24.091Z,12.69
2023-02-05T09:16:54.142Z,14.16
2023-02-05T09:19:26.242Z,15.50
2023-02-05T09:21:55.287Z,16.36
2023-02-05T09:24:27.802Z,17.41
2023-02-05T09:26:57.644Z,18.43
2023-02-05T09:29:29.820Z,19.15
2023-02-05T09:31:59.613Z,19.85
2023-02-05T09:34:28.741Z,20.44
2023-02-05T09:37:00.782Z,20.74
2023-02-05T09:43:05.803Z,20.79
2023-02-05T09:45:51.984Z,21.20
2023-02-05T09:48:23.046Z,21.51
2023-02-05T09:50:57.238Z,21.75
2023-02-05T09:53:33.841Z,22.10
2023-02-05T09:56:07.788Z,22.76
2023-02-05T09:58:41.789Z,22.79
2023-02-05T10:01:20.796Z,21.95
2023-02-05T10:03:56.558Z,22.33
2023-02-05T10:06:47.188Z,22.81
2023-02-05T10:09:34.448Z,22.92
2023-02-05T10:12:15.462Z,23.11
2023-02-05T10:14:49.180Z,22.78
2023-02-05T10:17:30.059Z,22.58
2023-02-05T10:20:22.276Z,22.71
2023-02-05T10:22:56.294Z,23.20
2023-02-05T10:25:45.485Z,23.41
2023-02-05T10:28:25.790Z,23.51
2023-02-05T10:31:09.829Z,23.30
2023-02-05T10:33:48.622Z,22.83
2023-02-05T10:36:22.280Z,22.52
2023-02-05T10:38:58.977Z,22.42
2023-02-05T10:41:28.402Z,22.24
2023-02-05T10:44:29.929Z,22.22
2023-02-05T10:47:06.396Z,22.36
2023-02-05T10:49:50.761Z,22.31
2023-02-05T10:52:24.454Z,21.84
2023-02-05T10:54:57.880Z,21.55
2023-02-05T10:57:31.839Z,21.09
2023-02-05T11:00:05.963Z,20.19
2023-02-05T11:02:39.587Z,20.37
2023-02-05T11:05:16.792Z,20.74
2023-02-05T11:07:49.617Z,20.58
2023-02-05T11:10:21.941Z,20.79
2023-02-05T11:12:56.445Z,20.65
2023-02-05T11:15:32.996Z,20.87
2023-02-05T11:18:07.413Z,21.12
2023-02-05T11:20:38.713Z,21.15
2023-02-05T11:23:08.418Z,20.70
2023-02-05T11:25:49.029Z,20.43
2023-02-05T11:28:30.830Z,19.79
2023-02-05T11:31:20.069Z,19.03
2023-02-05T11:33:50.282Z,18.49
2023-02-05T11:36:24.162Z,18.22
2023-02-05T11:38:57.944Z,18.46
2023-02-05T11:41:51.014Z,18.20
2023-02-05T11:44:25.606Z,17.84
2023-02-05T11:47:00.263Z,17.02
2023-02-05T11:49:46.085Z,15.97
2023-02-05T11:52:26.982Z,15.33
2023-02-05T11:54:57.583Z,15.39
2023-02-05T11:57:36.621Z,15.70
2023-02-05T12:00:12.180Z,15.40
2023-02-05T12:02:42.666Z,15.29
2023-02-05T12:05:20.691Z,15.78
2023-02-05T12:08:03.961Z,16.39
2023-02-05T12:10:41.211Z,16.63
2023-02-05T12:13:34.829Z,16.49
2023-02-05T12:16:09.540Z,16.30
2023-02-05T12:18:57.484Z,16.32
2023-02-05T12:22:02.229Z,16.52
2023-02-05T12:24:53.611Z,16.20
2023-02-05T12:27:41.469Z,16.46
2023-02-05T12:30:35.639Z,16.31
2023-02-05T12:33:24.492Z,15.62
2023-02-05T12:36:17.734Z,15.48
2023-02-05T12:38:48.472Z,15.48
2023-02-05T12:41:36.722Z,15.66
2023-02-05T12:44:26.213Z,15.95
2023-02-05T12:47:28.097Z,16.13
2023-02-05T12:50:05.712Z,15.91
2023-02-05T12:52:42.466Z,15.87
2023-02-05T12:55:19.113Z,15.97
2023-02-05T12:57:54.973Z,15.98
2023-02-05T13:00:31.646Z,16.07
2023-02-05T13:03:03.543Z,16.15
2023-02-05T13:05:39.459Z,16.16
2023-02-05T13:08:14.181Z,16.09
2023-02-05T13:11:09.647Z,16.05
2023-02-05T13:13:58.003Z,15.93
2023-02-05T13:16:34.973Z,15.93
2023-02-05T13:19:16.665Z,15.82
2023-02-05T13:22:05.690Z,15.61
2023-02-05T13:25:01.529Z,15.44
2023-02-05T13:27:59.811Z,15.31
2023-02-05T13:30:40.164Z,15.14
2023-02-05T13:33:11.013Z,14.96
2023-02-05T13:36:07.561Z,14.65
2023-02-05T13:38:51.755Z,14.30
2023-02-05T13:41:38.329Z,14.04
2023-02-05T13:44:29.775Z,13.63
2023-02-05T13:47:02.051Z,13.22
2023-02-05T13:49:43.370Z,12.88
2023-02-05T13:52:49.606Z,12.34
2023-02-05T13:55:27.021Z,11.67
2023-02-05T14:08:28.924Z,9.96
2023-02-05T14:11:13.372Z,9.39
2023-02-05T14:13:43.242Z,9.09
2023-02-05T14:16:27.227Z,8.94
2023-02-05T14:19:02.656Z,8.80
2023-02-05T14:21:32.413Z,8.66
2023-02-05T14:24:05.493Z,8.36
2023-02-05T14:26:51.639Z,8.09
2023-02-05T14:29:38.755Z,7.99
2023-02-05T14:32:13.126Z,7.67
2023-02-05T14:34:49.285Z,7.42
2023-02-05T14:37:36.368Z,7.19
2023-02-05T14:40:26.044Z,6.85
2023-02-05T14:43:10.860Z,6.42
2023-02-05T14:45:49.984Z,5.85
2023-02-05T14:48:24.035Z,5.13
2023-02-05T14:51:04.566Z,4.35
2023-02-05T14:53:38.222Z,3.64
2023-02-05T14:56:08.467Z,3.11
2023-02-05T14:58:45.642Z,2.50
2023-02-05T15:01:32.994Z,1.82
2023-02-05T15:04:06.053Z,1.01
2023-02-05T15:06:43.241Z,0.38
2023-02-05T15:09:21.271Z,-0.23
2023-02-05T15:12:11.929Z,-0.78
2023-02-05T15:14:52.106Z,-1.47
2023-02-05T15:17:53.095Z,-2.10
2023-02-05T15:20:42.823Z,-2.52
2023-02-05T15:23:17.046Z,-2.51
2023-02-05T15:25:58.241Z,-2.48
2023-02-05T15:28:39.692Z,-2.45
2023-02-05T15:31:20.534Z,-2.38
2023-02-05T15:33:58.007Z,-2.34
2023-02-05T15:36:34.528Z,-2.36
2023-02-05T15:39:27.042Z,-2.70
2023-02-05T15:42:01.094Z,-3.00
2023-02-05T15:44:34.107Z,-3.12
2023-02-05T15:47:10.433Z,-3.30
2023-02-05T15:49:46.635Z,-3.57
2023-02-05T15:52:18.681Z,-3.95
2023-02-05T15:54:57.188Z,-4.20
2023-02-05T15:57:30.978Z,-4.44
2023-02-05T16:00:10.076Z,-4.74
2023-02-05T16:02:46.605Z,-5.01
2023-02-05T16:05:24.200Z,-5.30
2023-02-05T16:07:58.085Z,-5.45
2023-02-05T16:10:33.665Z,-5.49
2023-02-05T16:13:04.627Z,-5.49
2023-02-05T16:15:37.168Z,-5.45
2023-02-05T16:18:14.571Z,-5.42
2023-02-05T16:20:47.392Z,-5.42
2023-02-05T16:23:44.708Z,-5.36
2023-02-05T16:26:25.298Z,-5.33
2023-02-05T16:28:59.983Z,-5.36
2023-02-05T16:31:31.434Z,-5.35
2023-02-05T16:34:09.950Z,-5.33
2023-02-05T16:36:44.495Z,-5.31
2023-02-05T16:39:36.827Z,-5.41
2023-02-05T16:42:10.424Z,-5.48
2023-02-05T16:44:50.843Z,-5.48
2023-02-05T16:47:25.429Z,-5.47
2023-02-05T16:50:00.365Z,-5.47
2023-02-05T16:52:37.037Z,-5.45
2023-02-05T16:55:16.950Z,-5.43
2023-02-05T16:57:50.885Z,-5.54
2023-02-05T17:00:41.251Z,-5.57
2023-02-05T17:03:21.047Z,-5.54
2023-02-05T17:05:58.777Z,-5.47
2023-02-05T17:08:34.571Z,-5.38
2023-02-05T17:11:07.292Z,-5.31
2023-02-05T17:13:54.945Z,-5.25
2023-02-05T17:16:41.719Z,-5.23
2023-02-05T17:19:30.714Z,-5.24
2023-02-05T17:22:18.424Z,-5.35
2023-02-05T17:25:03.168Z,-5.42
2023-02-05T17:27:38.764Z,-5.53
2023-02-05T17:30:17.157Z,-5.88
2023-02-05T17:32:52.266Z,-6.26
2023-02-05T17:35:29.147Z,-6.45
2023-02-05T17:38:01.158Z,-6.55
2023-02-05T17:40:33.165Z,-6.60
2023-02-05T17:43:06.340Z,-6.60
2023-02-05T17:45:40.691Z,-6.59
2023-02-05T17:48:12.401Z,-6.55
2023-02-05T17:50:46.810Z,-6.51
2023-02-05T17:53:20.290Z,-6.59
2023-02-05T17:55:51.642Z,-6.75
2023-02-05T17:58:23.204Z,-6.75
2023-02-05T18:00:55.679Z,-6.69
2023-02-05T18:03:29.754Z,-6.63
2023-02-05T18:06:02.994Z,-6.59
2023-02-05T18:08:43.209Z,-6.60
2023-02-05T18:11:17.337Z,-6.59
2023-02-05T18:13:51.706Z,-6.60
2023-02-05T18:16:23.403Z,-6.64
2023-02-05T18:18:59.461Z,-6.63
2023-02-05T18:21:33.698Z,-6.55
2023-02-05T18:24:08.111Z,-6.45
2023-02-05T18:26:41.296Z,-6.37
2023-02-05T18:29:15.289Z,-6.37
2023-02-05T18:31:47.316Z,-6.41
2023-02-05T18:34:20.352Z,-6.40
2023-02-05T18:36:55.711Z,-6.34
2023-02-05T18:39:29.022Z,-6.27
2023-02-05T18:42:01.727Z,-6.22
2023-02-05T18:44:34.891Z,-6.22
2023-02-05T18:47:07.000Z,-6.42
2023-02-05T18:49:41.629Z,-6.64
2023-02-05T18:52:14.175Z,-6.75
2023-02-05T18:54:46.864Z,-6.80
2023-02-05T18:57:17.602Z,-6.84
2023-02-05T18:59:54.252Z,-6.77
2023-02-05T19:02:26.022Z,-6.70
2023-02-05T19:04:57.005Z,-6.72
2023-02-05T19:07:29.997Z,-6.72
2023-02-05T19:10:02.729Z,-6.63
2023-02-05T19:12:36.070Z,-6.53
2023-02-05T19:15:08.648Z,-6.43
2023-02-05T19:17:44.518Z,-6.37
2023-02-05T19:20:14.789Z,-6.40
2023-02-05T19:22:47.836Z,-6.47
2023-02-05T19:25:19.995Z,-6.56
2023-02-05T19:27:54.066Z,-6.51
2023-02-05T19:30:27.627Z,-6.38
2023-02-05T19:33:01.201Z,-6.25
2023-02-05T19:35:34.797Z,-6.13
2023-02-05T19:38:07.885Z,-6.02
2023-02-05T19:40:42.397Z,-6.00
2023-02-05T19:43:19.400Z,-5.99
2023-02-05T19:45:53.706Z,-6.06
2023-02-05T19:48:27.600Z,-6.15
2023-02-05T19:51:05.123Z,-6.20
2023-02-05T19:53:39.152Z,-6.12
2023-02-05T19:56:14.414Z,-6.03
2023-02-05T19:58:51.066Z,-5.94
2023-02-05T20:01:30.156Z,-5.84
2023-02-05T20:04:04.379Z,-5.80
2023-02-05T20:06:35.923Z,-5.71
2023-02-05T20:09:11.602Z,-5.60
2023-02-05T20:14:28.400Z,-5.46
2023-02-05T20:17:02.251Z,-5.44
2023-02-05T20:19:33.398Z,-5.43
2023-02-05T20:22:08.371Z,-5.46
2023-02-05T20:24:41.335Z,-5.49
2023-02-05T20:27:14.586Z,-5.60
2023-02-05T20:30:05.248Z,-5.70
2023-02-05T20:32:36.498Z,-5.87
2023-02-05T20:35:10.653Z,-6.07
2023-02-05T20:37:46.090Z,-6.23
2023-02-05T20:40:17.254Z,-6.33
2023-02-05T20:42:49.406Z,-6.40
2023-02-05T20:45:20.510Z,-6.44
2023-02-05T20:47:55.119Z,-6.43
2023-02-05T20:50:31.009Z,-6.45
2023-02-05T20:53:04.094Z,-6.47
2023-02-05T20:55:35.653Z,-6.56
2023-02-05T20:58:08.308Z,-6.70
2023-02-05T21:00:41.397Z,-6.77
2023-02-05T21:03:11.924Z,-6.78
2023-02-05T21:05:45.575Z,-6.78
2023-02-05T21:08:16.107Z,-6.73
2023-02-05T21:10:47.520Z,-6.68
2023-02-05T21:13:17.457Z,-6.66
2023-02-05T21:16:00.665Z,-6.63
2023-02-05T21:18:31.453Z,-6.57
2023-02-05T21:21:11.699Z,-6.53
2023-02-05T21:23:43.061Z,-6.52
2023-02-05T21:26:21.118Z,-6.55
2023-02-05T21:28:55.668Z,-6.61
2023-02-05T21:31:34.107Z,-6.64
2023-02-05T21:34:08.598Z,-6.65
2023-02-05T21:36:39.199Z,-6.62
2023-02-05T21:39:13.116Z,-6.64
2023-02-05T21:41:44.969Z,-6.63
2023-02-05T21:44:16.223Z,-6.62
2023-02-05T21:46:47.553Z,-6.62
2023-02-05T21:49:17.598Z,-6.57
2023-02-05T21:51:48.596Z,-6.45
2023-02-05T21:54:19.864Z,-6.38
2023-02-05T21:56:52.642Z,-6.28
2023-02-05T21:59:23.210Z,-6.17
2023-02-05T22:01:53.244Z,-6.13
2023-02-05T22:04:22.074Z,-6.18
2023-02-05T22:06:51.905Z,-6.18
2023-02-05T22:09:21.831Z,-6.13
2023-02-05T22:11:53.463Z,-6.10
2023-02-05T22:14:24.466Z,-6.13
2023-02-05T22:16:55.613Z,-6.11
2023-02-05T22:19:27.056Z,-6.09
2023-02-05T22:21:56.014Z,-6.12
2023-02-05T22:24:25.665Z,-6.07
2023-02-05T22:26:55.477Z,-6.00
2023-02-05T22:29:25.620Z,-5.95
2023-02-05T22:31:55.984Z,-5.93
2023-02-05T22:34:24.999Z,-5.98
2023-02-05T22:36:55.279Z,-5.98
2023-02-05T22:39:24.060Z,-6.00
2023-02-05T22:41:55.251Z,-6.05
2023-02-05T22:44:24.241Z,-6.09
2023-02-05T22:46:57.570Z,-6.14
2023-02-05T22:49:29.687Z,-6.13
2023-02-05T22:52:00.053Z,-6.15
2023-02-05T22:54:30.061Z,-6.20
2023-02-05T22:57:01.720Z,-6.15
2023-02-05T22:59:30.609Z,-6.04
2023-02-05T23:02:00.475Z,-5.94
2023-02-05T23:04:30.505Z,-5.83
2023-02-05T23:07:01.708Z,-5.76
2023-02-05T23:09:30.460Z,-5.77
2023-02-05T23:12:01.464Z,-5.77
2023-02-05T23:14:32.050Z,-5.77
2023-02-05T23:17:02.532Z,-5.80
2023-02-05T23:19:32.526Z,-5.84
2023-02-05T23:22:02.975Z,-5.88
2023-02-05T23:24:32.004Z,-5.90
2023-02-05T23:27:02.875Z,-5.91
2023-02-05T23:29:32.052Z,-5.94
2023-02-05T23:32:03.064Z,-6.02
2023-02-05T23:34:34.138Z,-6.13
2023-02-05T23:37:03.338Z,-6.22
2023-02-05T23:39:34.841Z,-6.26
2023-02-05T23:42:06.054Z,-6.26
2023-02-05T23:44:38.125Z,-6.27
2023-02-05T23:47:09.569Z,-6.23
2023-02-05T23:49:39.603Z,-6.16
2023-02-05T23:52:10.628Z,-6.10
2023-02-05T23:54:39.946Z,-5.99
2023-02-05T23:57:10.709Z,-5.86
2023-02-05T23:59:41.183Z,-5.82
